sensor_id;sensor_type;location;lat;lon;timestamp;temperature;humidity
14735;DHT22;7458;49.002;8.472;2022-12-15T00:01:03;0.50;99.90
14735;DHT22;7458;49.002;8.472;2022-12-15T00:03:48;0.40;99.90
14735;DHT22;7458;49.002;8.472;2022-12-15T00:06:32;0.70;99.90
14735;DHT22;7458;49.002;8.472;2022-12-15T00:09:16;2.00;99.90
14735;DHT22;7458;49.002;8.472;2022-12-15T00:12:01;0.50;99.90
14735;DHT22;7458;49.002;8.472;2022-12-15T00:14:45;0.50;99.90
14735;DHT22;7458;49.002;8.472;2022-12-15T00:17:29;0.50;99.90
14735;DHT22;7458;49.002;8.472;2022-12-15T00:20:14;0.40;99.90
14735;DHT22;7458;49.002;8.472;2022-12-15T00:23:09;0.40;99.90
14735;DHT22;7458;49.002;8.472;2022-12-15T00:25:56;0.90;99.90
14735;DHT22;7458;49.002;8.472;2022-12-15T00:28:40;0.40;99.90
14735;DHT22;7458;49.002;8.472;2022-12-15T00:31:25;0.70;99.90
14735;DHT22;7458;49.002;8.472;2022-12-15T00:34:09;0.50;99.90
14735;DHT22;7458;49.002;8.472;2022-12-15T00:36:54;0.40;99.90
14735;DHT22;7458;49.002;8.472;2022-12-15T00:39:38;0.40;99.90
14735;DHT22;7458;49.002;8.472;2022-12-15T00:42:05;0.50;99.90
14735;DHT22;7458;49.002;8.472;2022-12-15T00:44:32;0.90;99.90
14735;DHT22;7458;49.002;8.472;2022-12-15T00:46:58;0.40;99.90
14735;DHT22;7458;49.002;8.472;2022-12-15T00:49:26;0.80;99.90
14735;DHT22;7458;49.002;8.472;2022-12-15T00:52:12;0.50;99.90
14735;DHT22;7458;49.002;8.472;2022-12-15T00:54:58;0.80;99.90
14735;DHT22;7458;49.002;8.472;2022-12-15T00:57:43;1.00;99.90
14735;DHT22;7458;49.002;8.472;2022-12-15T01:00:27;0.40;99.90
14735;DHT22;7458;49.002;8.472;2022-12-15T01:03:18;1.20;99.90
14735;DHT22;7458;49.002;8.472;2022-12-15T01:06:10;0.40;99.90
14735;DHT22;7458;49.002;8.472;2022-12-15T01:08:56;0.40;99.90
14735;DHT22;7458;49.002;8.472;2022-12-15T01:11:41;0.40;99.90
14735;DHT22;7458;49.002;8.472;2022-12-15T01:14:28;0.50;99.90
14735;DHT22;7458;49.002;8.472;2022-12-15T01:17:13;0.50;99.90
14735;DHT22;7458;49.002;8.472;2022-12-15T01:19:58;1.20;99.90
14735;DHT22;7458;49.002;8.472;2022-12-15T01:22:44;0.40;99.90
14735;DHT22;7458;49.002;8.472;2022-12-15T01:25:16;0.40;99.90
14735;DHT22;7458;49.002;8.472;2022-12-15T01:27:43;0.40;99.90
14735;DHT22;7458;49.002;8.472;2022-12-15T01:30:12;0.40;99.90
14735;DHT22;7458;49.002;8.472;2022-12-15T01:32:40;0.30;99.90
14735;DHT22;7458;49.002;8.472;2022-12-15T01:35:07;0.30;99.90
14735;DHT22;7458;49.002;8.472;2022-12-15T01:37:33;0.30;99.90
14735;DHT22;7458;49.002;8.472;2022-12-15T01:39:59;0.40;99.90
14735;DHT22;7458;49.002;8.472;2022-12-15T01:42:44;1.10;99.90
14735;DHT22;7458;49.002;8.472;2022-12-15T01:48:06;0.30;99.90
14735;DHT22;7458;49.002;8.472;2022-12-15T01:50:44;0.30;99.90
14735;DHT22;7458;49.002;8.472;2022-12-15T01:53:16;0.40;99.90
14735;DHT22;7458;49.002;8.472;2022-12-15T01:55:43;0.40;99.90
14735;DHT22;7458;49.002;8.472;2022-12-15T01:58:14;0.40;99.90
14735;DHT22;7458;49.002;8.472;2022-12-15T02:00:42;1.60;99.90
14735;DHT22;7458;49.002;8.472;2022-12-15T02:03:08;0.40;99.90
14735;DHT22;7458;49.002;8.472;2022-12-15T02:05:36;1.30;99.90
14735;DHT22;7458;49.002;8.472;2022-12-15T02:08:04;0.30;99.90
14735;DHT22;7458;49.002;8.472;2022-12-15T02:10:54;1.30;99.90
14735;DHT22;7458;49.002;8.472;2022-12-15T02:13:44;0.40;99.90
14735;DHT22;7458;49.002;8.472;2022-12-15T02:28:37;0.40;99.90
14735;DHT22;7458;49.002;8.472;2022-12-15T02:31:21;0.80;99.90
14735;DHT22;7458;49.002;8.472;2022-12-15T02:34:36;0.40;99.90
14735;DHT22;7458;49.002;8.472;2022-12-15T02:37:38;0.40;99.90
14735;DHT22;7458;49.002;8.472;2022-12-15T02:40:06;0.40;99.90
14735;DHT22;7458;49.002;8.472;2022-12-15T02:42:41;0.40;99.90
14735;DHT22;7458;49.002;8.472;2022-12-15T02:45:14;0.40;99.90
14735;DHT22;7458;49.002;8.472;2022-12-15T02:50:59;0.40;99.90
14735;DHT22;7458;49.002;8.472;2022-12-15T02:56:36;0.50;99.90
14735;DHT22;7458;49.002;8.472;2022-12-15T02:59:19;0.40;99.90
14735;DHT22;7458;49.002;8.472;2022-12-15T03:01:58;0.40;99.90
14735;DHT22;7458;49.002;8.472;2022-12-15T03:04:27;0.40;99.90
14735;DHT22;7458;49.002;8.472;2022-12-15T03:06:57;0.40;99.90
14735;DHT22;7458;49.002;8.472;2022-12-15T03:09:32;0.40;99.90
14735;DHT22;7458;49.002;8.472;2022-12-15T03:11:58;0.40;99.90
14735;DHT22;7458;49.002;8.472;2022-12-15T03:14:24;1.20;99.90
14735;DHT22;7458;49.002;8.472;2022-12-15T03:16:51;0.50;99.90
14735;DHT22;7458;49.002;8.472;2022-12-15T03:19:18;0.80;99.90
14735;DHT22;7458;49.002;8.472;2022-12-15T03:21:44;0.40;99.90
14735;DHT22;7458;49.002;8.472;2022-12-15T03:24:09;1.10;99.90
14735;DHT22;7458;49.002;8.472;2022-12-15T03:26:35;0.40;99.90
14735;DHT22;7458;49.002;8.472;2022-12-15T03:29:01;0.40;99.90
14735;DHT22;7458;49.002;8.472;2022-12-15T03:31:27;0.90;99.90
14735;DHT22;7458;49.002;8.472;2022-12-15T03:33:53;1.00;99.90
14735;DHT22;7458;49.002;8.472;2022-12-15T03:36:20;0.40;99.90
14735;DHT22;7458;49.002;8.472;2022-12-15T03:38:47;0.40;99.90
14735;DHT22;7458;49.002;8.472;2022-12-15T03:41:13;0.40;99.90
14735;DHT22;7458;49.002;8.472;2022-12-15T03:43:40;0.40;99.90
14735;DHT22;7458;49.002;8.472;2022-12-15T03:46:05;0.40;99.90
14735;DHT22;7458;49.002;8.472;2022-12-15T03:48:31;0.40;99.90
14735;DHT22;7458;49.002;8.472;2022-12-15T03:50:57;0.40;99.90
14735;DHT22;7458;49.002;8.472;2022-12-15T03:53:23;0.30;99.90
14735;DHT22;7458;49.002;8.472;2022-12-15T03:55:49;0.40;99.90
14735;DHT22;7458;49.002;8.472;2022-12-15T03:58:15;0.30;99.90
14735;DHT22;7458;49.002;8.472;2022-12-15T04:00:40;0.40;99.90
14735;DHT22;7458;49.002;8.472;2022-12-15T04:03:06;0.40;99.90
14735;DHT22;7458;49.002;8.472;2022-12-15T04:05:33;0.40;99.90
14735;DHT22;7458;49.002;8.472;2022-12-15T04:08:00;0.40;99.90
14735;DHT22;7458;49.002;8.472;2022-12-15T04:10:28;0.40;99.90
14735;DHT22;7458;49.002;8.472;2022-12-15T04:13:00;0.40;99.90
14735;DHT22;7458;49.002;8.472;2022-12-15T04:15:31;0.50;99.90
14735;DHT22;7458;49.002;8.472;2022-12-15T04:18:00;0.50;99.90
14735;DHT22;7458;49.002;8.472;2022-12-15T04:20:27;0.30;99.90
14735;DHT22;7458;49.002;8.472;2022-12-15T04:22:53;0.20;99.90
14735;DHT22;7458;49.002;8.472;2022-12-15T04:25:21;0.20;99.90
14735;DHT22;7458;49.002;8.472;2022-12-15T04:28:09;0.10;99.90
14735;DHT22;7458;49.002;8.472;2022-12-15T04:30:57;0.10;99.90
14735;DHT22;7458;49.002;8.472;2022-12-15T04:33:47;0.20;99.90
14735;DHT22;7458;49.002;8.472;2022-12-15T04:36:36;0.10;99.90
14735;DHT22;7458;49.002;8.472;2022-12-15T04:39:23;0.20;99.90
14735;DHT22;7458;49.002;8.472;2022-12-15T04:42:08;0.30;99.90
14735;DHT22;7458;49.002;8.472;2022-12-15T04:44:56;0.30;99.90
14735;DHT22;7458;49.002;8.472;2022-12-15T04:47:42;0.30;99.90
14735;DHT22;7458;49.002;8.472;2022-12-15T04:50:26;0.30;99.90
14735;DHT22;7458;49.002;8.472;2022-12-15T04:53:12;0.30;99.90
14735;DHT22;7458;49.002;8.472;2022-12-15T04:55:59;0.30;99.90
14735;DHT22;7458;49.002;8.472;2022-12-15T04:58:43;0.40;99.90
14735;DHT22;7458;49.002;8.472;2022-12-15T05:01:28;0.40;99.90
14735;DHT22;7458;49.002;8.472;2022-12-15T05:04:12;0.30;99.90
14735;DHT22;7458;49.002;8.472;2022-12-15T05:06:56;0.30;99.90
14735;DHT22;7458;49.002;8.472;2022-12-15T05:09:41;0.30;99.90
14735;DHT22;7458;49.002;8.472;2022-12-15T05:12:25;1.00;99.90
14735;DHT22;7458;49.002;8.472;2022-12-15T05:15:10;0.30;99.90
14735;DHT22;7458;49.002;8.472;2022-12-15T05:17:54;0.40;99.90
14735;DHT22;7458;49.002;8.472;2022-12-15T05:20:38;0.40;99.90
14735;DHT22;7458;49.002;8.472;2022-12-15T05:23:23;0.90;99.90
14735;DHT22;7458;49.002;8.472;2022-12-15T05:26:08;1.20;99.90
14735;DHT22;7458;49.002;8.472;2022-12-15T05:28:52;0.40;99.90
14735;DHT22;7458;49.002;8.472;2022-12-15T05:31:37;1.00;99.90
14735;DHT22;7458;49.002;8.472;2022-12-15T05:34:25;0.30;99.90
14735;DHT22;7458;49.002;8.472;2022-12-15T05:36:53;0.30;99.90
14735;DHT22;7458;49.002;8.472;2022-12-15T05:39:21;0.30;99.90
14735;DHT22;7458;49.002;8.472;2022-12-15T05:41:49;0.30;99.90
14735;DHT22;7458;49.002;8.472;2022-12-15T05:44:16;1.00;99.90
14735;DHT22;7458;49.002;8.472;2022-12-15T05:46:43;0.30;99.90
14735;DHT22;7458;49.002;8.472;2022-12-15T05:49:12;0.40;99.90
14735;DHT22;7458;49.002;8.472;2022-12-15T05:51:40;0.40;99.90
14735;DHT22;7458;49.002;8.472;2022-12-15T05:54:08;0.30;99.90
14735;DHT22;7458;49.002;8.472;2022-12-15T05:56:35;0.60;99.90
14735;DHT22;7458;49.002;8.472;2022-12-15T05:59:01;0.30;99.90
14735;DHT22;7458;49.002;8.472;2022-12-15T06:01:28;0.30;99.90
14735;DHT22;7458;49.002;8.472;2022-12-15T06:03:56;0.20;99.90
14735;DHT22;7458;49.002;8.472;2022-12-15T06:06:23;0.20;99.90
14735;DHT22;7458;49.002;8.472;2022-12-15T06:08:49;0.20;99.90
14735;DHT22;7458;49.002;8.472;2022-12-15T06:11:17;0.20;99.90
14735;DHT22;7458;49.002;8.472;2022-12-15T06:13:44;0.20;99.90
14735;DHT22;7458;49.002;8.472;2022-12-15T06:16:19;0.20;99.90
14735;DHT22;7458;49.002;8.472;2022-12-15T06:18:49;0.30;99.90
14735;DHT22;7458;49.002;8.472;2022-12-15T06:21:30;0.30;99.90
14735;DHT22;7458;49.002;8.472;2022-12-15T06:23:59;0.30;99.90
14735;DHT22;7458;49.002;8.472;2022-12-15T06:26:29;0.30;99.90
14735;DHT22;7458;49.002;8.472;2022-12-15T06:28:59;0.90;99.90
14735;DHT22;7458;49.002;8.472;2022-12-15T06:31:30;0.90;99.90
14735;DHT22;7458;49.002;8.472;2022-12-15T06:33:57;0.40;99.90
14735;DHT22;7458;49.002;8.472;2022-12-15T06:36:23;0.50;99.90
14735;DHT22;7458;49.002;8.472;2022-12-15T06:38:50;0.40;99.90
14735;DHT22;7458;49.002;8.472;2022-12-15T06:41:18;0.40;99.90
14735;DHT22;7458;49.002;8.472;2022-12-15T06:43:53;0.40;99.90
14735;DHT22;7458;49.002;8.472;2022-12-15T06:46:23;0.50;99.90
14735;DHT22;7458;49.002;8.472;2022-12-15T06:48:50;0.50;99.90
14735;DHT22;7458;49.002;8.472;2022-12-15T06:51:17;0.50;99.90
14735;DHT22;7458;49.002;8.472;2022-12-15T06:53:44;1.00;99.90
14735;DHT22;7458;49.002;8.472;2022-12-15T06:56:21;2.20;99.90
14735;DHT22;7458;49.002;8.472;2022-12-15T06:58:52;0.60;99.90
14735;DHT22;7458;49.002;8.472;2022-12-15T07:01:20;0.50;99.90
14735;DHT22;7458;49.002;8.472;2022-12-15T07:03:48;0.50;99.90
14735;DHT22;7458;49.002;8.472;2022-12-15T07:06:15;1.30;99.90
14735;DHT22;7458;49.002;8.472;2022-12-15T07:08:42;0.50;99.90
14735;DHT22;7458;49.002;8.472;2022-12-15T07:11:11;0.50;99.90
14735;DHT22;7458;49.002;8.472;2022-12-15T07:13:37;0.80;99.90
14735;DHT22;7458;49.002;8.472;2022-12-15T07:16:05;0.40;99.90
14735;DHT22;7458;49.002;8.472;2022-12-15T07:18:32;0.30;99.90
14735;DHT22;7458;49.002;8.472;2022-12-15T07:21:04;0.20;99.90
14735;DHT22;7458;49.002;8.472;2022-12-15T07:23:32;0.20;99.90
14735;DHT22;7458;49.002;8.472;2022-12-15T07:26:05;0.20;99.90
14735;DHT22;7458;49.002;8.472;2022-12-15T07:28:34;0.30;99.90
14735;DHT22;7458;49.002;8.472;2022-12-15T07:31:05;0.80;99.90
14735;DHT22;7458;49.002;8.472;2022-12-15T07:33:33;0.30;99.90
14735;DHT22;7458;49.002;8.472;2022-12-15T07:36:00;1.10;99.90
14735;DHT22;7458;49.002;8.472;2022-12-15T07:38:27;0.30;99.90
14735;DHT22;7458;49.002;8.472;2022-12-15T07:40:53;0.20;99.90
14735;DHT22;7458;49.002;8.472;2022-12-15T07:43:21;0.10;99.90
14735;DHT22;7458;49.002;8.472;2022-12-15T07:45:53;0.10;99.90
14735;DHT22;7458;49.002;8.472;2022-12-15T07:48:19;0.10;99.90
14735;DHT22;7458;49.002;8.472;2022-12-15T07:50:45;0.10;99.90
14735;DHT22;7458;49.002;8.472;2022-12-15T07:53:14;0.50;99.90
14735;DHT22;7458;49.002;8.472;2022-12-15T07:55:40;1.00;99.90
14735;DHT22;7458;49.002;8.472;2022-12-15T07:58:05;0.30;99.90
14735;DHT22;7458;49.002;8.472;2022-12-15T08:00:31;4.50;99.90
14735;DHT22;7458;49.002;8.472;2022-12-15T08:03:00;3.20;99.90
14735;DHT22;7458;49.002;8.472;2022-12-15T08:05:27;2.10;99.90
14735;DHT22;7458;49.002;8.472;2022-12-15T08:07:52;1.60;99.90
14735;DHT22;7458;49.002;8.472;2022-12-15T08:10:18;1.40;99.90
14735;DHT22;7458;49.002;8.472;2022-12-15T08:12:44;1.20;99.90
14735;DHT22;7458;49.002;8.472;2022-12-15T08:15:10;2.40;99.90
14735;DHT22;7458;49.002;8.472;2022-12-15T08:17:36;1.60;99.90
14735;DHT22;7458;49.002;8.472;2022-12-15T08:20:02;0.90;99.90
14735;DHT22;7458;49.002;8.472;2022-12-15T08:22:28;0.70;99.90
14735;DHT22;7458;49.002;8.472;2022-12-15T08:24:53;0.60;99.90
14735;DHT22;7458;49.002;8.472;2022-12-15T08:27:19;0.50;99.90
14735;DHT22;7458;49.002;8.472;2022-12-15T08:29:46;1.10;99.90
14735;DHT22;7458;49.002;8.472;2022-12-15T08:32:11;1.10;99.90
14735;DHT22;7458;49.002;8.472;2022-12-15T08:34:38;2.10;99.90
14735;DHT22;7458;49.002;8.472;2022-12-15T08:37:07;1.90;99.90
14735;DHT22;7458;49.002;8.472;2022-12-15T08:39:32;2.70;99.90
14735;DHT22;7458;49.002;8.472;2022-12-15T08:41:58;1.40;99.90
14735;DHT22;7458;49.002;8.472;2022-12-15T08:44:24;1.60;99.90
14735;DHT22;7458;49.002;8.472;2022-12-15T08:46:50;2.00;99.90
14735;DHT22;7458;49.002;8.472;2022-12-15T08:49:15;1.50;99.90
14735;DHT22;7458;49.002;8.472;2022-12-15T08:51:41;1.40;99.90
14735;DHT22;7458;49.002;8.472;2022-12-15T08:54:07;3.10;99.90
14735;DHT22;7458;49.002;8.472;2022-12-15T08:56:34;2.80;99.90
14735;DHT22;7458;49.002;8.472;2022-12-15T08:59:01;0.90;99.90
14735;DHT22;7458;49.002;8.472;2022-12-15T09:01:29;0.70;99.90
14735;DHT22;7458;49.002;8.472;2022-12-15T09:04:03;0.80;99.90
14735;DHT22;7458;49.002;8.472;2022-12-15T09:06:32;0.80;99.90
14735;DHT22;7458;49.002;8.472;2022-12-15T09:09:05;1.40;99.90
14735;DHT22;7458;49.002;8.472;2022-12-15T09:11:33;0.50;99.90
14735;DHT22;7458;49.002;8.472;2022-12-15T09:13:59;0.90;99.90
14735;DHT22;7458;49.002;8.472;2022-12-15T09:16:25;0.60;99.90
14735;DHT22;7458;49.002;8.472;2022-12-15T09:18:54;0.70;99.90
14735;DHT22;7458;49.002;8.472;2022-12-15T09:21:22;1.00;99.90
14735;DHT22;7458;49.002;8.472;2022-12-15T09:23:52;0.90;99.90
14735;DHT22;7458;49.002;8.472;2022-12-15T09:26:21;1.60;99.90
14735;DHT22;7458;49.002;8.472;2022-12-15T09:28:48;0.60;99.90
14735;DHT22;7458;49.002;8.472;2022-12-15T09:31:19;0.70;99.90
14735;DHT22;7458;49.002;8.472;2022-12-15T09:33:51;1.20;99.90
14735;DHT22;7458;49.002;8.472;2022-12-15T09:36:18;0.80;99.90
14735;DHT22;7458;49.002;8.472;2022-12-15T09:38:44;0.90;99.90
14735;DHT22;7458;49.002;8.472;2022-12-15T09:41:17;1.00;99.90
14735;DHT22;7458;49.002;8.472;2022-12-15T09:50:02;1.00;99.90
14735;DHT22;7458;49.002;8.472;2022-12-15T09:52:48;0.90;99.90
14735;DHT22;7458;49.002;8.472;2022-12-15T09:55:24;0.80;99.90
14735;DHT22;7458;49.002;8.472;2022-12-15T10:00:48;1.50;99.90
14735;DHT22;7458;49.002;8.472;2022-12-15T10:06:25;1.40;99.90
14735;DHT22;7458;49.002;8.472;2022-12-15T10:09:02;1.30;99.90
14735;DHT22;7458;49.002;8.472;2022-12-15T10:12:35;1.70;99.90
14735;DHT22;7458;49.002;8.472;2022-12-15T10:15:23;1.10;99.90
14735;DHT22;7458;49.002;8.472;2022-12-15T10:18:12;1.10;99.90
14735;DHT22;7458;49.002;8.472;2022-12-15T10:20:44;1.00;99.90
14735;DHT22;7458;49.002;8.472;2022-12-15T10:23:15;1.10;99.90
14735;DHT22;7458;49.002;8.472;2022-12-15T10:25:57;1.20;99.90
14735;DHT22;7458;49.002;8.472;2022-12-15T10:31:49;1.30;99.90
14735;DHT22;7458;49.002;8.472;2022-12-15T10:34:28;1.30;99.90
14735;DHT22;7458;49.002;8.472;2022-12-15T10:36:58;1.30;99.90
14735;DHT22;7458;49.002;8.472;2022-12-15T10:39:39;1.40;99.90
14735;DHT22;7458;49.002;8.472;2022-12-15T10:42:25;1.50;99.90
14735;DHT22;7458;49.002;8.472;2022-12-15T10:44:56;1.50;99.90
14735;DHT22;7458;49.002;8.472;2022-12-15T10:47:26;1.90;99.90
14735;DHT22;7458;49.002;8.472;2022-12-15T10:49:55;2.10;99.90
14735;DHT22;7458;49.002;8.472;2022-12-15T10:52:41;1.70;99.90
14735;DHT22;7458;49.002;8.472;2022-12-15T10:55:40;1.30;99.90
14735;DHT22;7458;49.002;8.472;2022-12-15T10:58:22;1.20;99.90
14735;DHT22;7458;49.002;8.472;2022-12-15T11:01:08;1.20;99.90
14735;DHT22;7458;49.002;8.472;2022-12-15T11:03:44;2.40;99.90
14735;DHT22;7458;49.002;8.472;2022-12-15T11:06:26;1.40;99.90
14735;DHT22;7458;49.002;8.472;2022-12-15T11:08:56;1.40;99.90
14735;DHT22;7458;49.002;8.472;2022-12-15T11:11:34;2.20;99.90
14735;DHT22;7458;49.002;8.472;2022-12-15T11:14:47;1.70;99.90
14735;DHT22;7458;49.002;8.472;2022-12-15T11:17:17;1.40;99.90
14735;DHT22;7458;49.002;8.472;2022-12-15T11:19:54;1.40;99.90
14735;DHT22;7458;49.002;8.472;2022-12-15T11:22:41;1.40;99.90
14735;DHT22;7458;49.002;8.472;2022-12-15T11:25:20;1.30;99.90
14735;DHT22;7458;49.002;8.472;2022-12-15T11:27:59;1.30;99.90
14735;DHT22;7458;49.002;8.472;2022-12-15T11:30:34;2.30;99.90
14735;DHT22;7458;49.002;8.472;2022-12-15T11:33:08;1.40;99.90
14735;DHT22;7458;49.002;8.472;2022-12-15T11:35:44;1.50;99.90
14735;DHT22;7458;49.002;8.472;2022-12-15T11:47:07;1.40;99.90
14735;DHT22;7458;49.002;8.472;2022-12-15T11:53:30;1.40;99.90
14735;DHT22;7458;49.002;8.472;2022-12-15T11:56:46;1.40;99.90
14735;DHT22;7458;49.002;8.472;2022-12-15T12:05:33;1.30;99.90
14735;DHT22;7458;49.002;8.472;2022-12-15T12:08:36;1.30;99.90
14735;DHT22;7458;49.002;8.472;2022-12-15T12:11:27;1.30;99.90
14735;DHT22;7458;49.002;8.472;2022-12-15T12:17:36;1.20;99.90
14735;DHT22;7458;49.002;8.472;2022-12-15T12:23:12;1.10;99.90
14735;DHT22;7458;49.002;8.472;2022-12-15T12:29:32;1.20;99.90
14735;DHT22;7458;49.002;8.472;2022-12-15T12:32:19;1.20;99.90
14735;DHT22;7458;49.002;8.472;2022-12-15T12:35:24;1.30;99.90
14735;DHT22;7458;49.002;8.472;2022-12-15T12:37:55;1.50;99.90
14735;DHT22;7458;49.002;8.472;2022-12-15T12:43:34;1.40;99.90
14735;DHT22;7458;49.002;8.472;2022-12-15T12:46:35;1.30;99.90
14735;DHT22;7458;49.002;8.472;2022-12-15T12:49:15;1.40;99.90
14735;DHT22;7458;49.002;8.472;2022-12-15T12:51:54;1.50;99.90
14735;DHT22;7458;49.002;8.472;2022-12-15T12:57:36;1.50;99.90
14735;DHT22;7458;49.002;8.472;2022-12-15T13:05:00;1.70;99.90
14735;DHT22;7458;49.002;8.472;2022-12-15T13:07:29;1.80;99.90
14735;DHT22;7458;49.002;8.472;2022-12-15T13:18:21;1.70;99.90
14735;DHT22;7458;49.002;8.472;2022-12-15T13:20:52;1.90;99.90
14735;DHT22;7458;49.002;8.472;2022-12-15T13:44:46;1.80;99.90
14735;DHT22;7458;49.002;8.472;2022-12-15T13:47:22;2.20;99.90
14735;DHT22;7458;49.002;8.472;2022-12-15T13:49:53;1.80;99.90
14735;DHT22;7458;49.002;8.472;2022-12-15T13:54:53;1.90;99.90
14735;DHT22;7458;49.002;8.472;2022-12-15T13:57:24;1.80;99.90
14735;DHT22;7458;49.002;8.472;2022-12-15T13:59:53;1.90;99.90
14735;DHT22;7458;49.002;8.472;2022-12-15T14:02:31;1.80;99.90
14735;DHT22;7458;49.002;8.472;2022-12-15T14:07:39;1.90;99.90
14735;DHT22;7458;49.002;8.472;2022-12-15T14:10:19;2.70;99.90
14735;DHT22;7458;49.002;8.472;2022-12-15T14:12:47;1.80;99.90
14735;DHT22;7458;49.002;8.472;2022-12-15T14:15:16;2.80;99.90
14735;DHT22;7458;49.002;8.472;2022-12-15T14:17:52;1.70;99.90
14735;DHT22;7458;49.002;8.472;2022-12-15T14:20:36;1.60;99.90
14735;DHT22;7458;49.002;8.472;2022-12-15T14:23:22;1.60;99.90
14735;DHT22;7458;49.002;8.472;2022-12-15T14:28:38;4.20;99.90
14735;DHT22;7458;49.002;8.472;2022-12-15T14:31:20;4.30;99.90
14735;DHT22;7458;49.002;8.472;2022-12-15T14:33:52;3.50;99.90
14735;DHT22;7458;49.002;8.472;2022-12-15T14:36:28;3.10;99.90
14735;DHT22;7458;49.002;8.472;2022-12-15T14:39:02;2.70;99.90
14735;DHT22;7458;49.002;8.472;2022-12-15T14:41:36;2.40;99.90
14735;DHT22;7458;49.002;8.472;2022-12-15T14:44:16;2.10;99.90
14735;DHT22;7458;49.002;8.472;2022-12-15T14:46:48;2.30;99.90
14735;DHT22;7458;49.002;8.472;2022-12-15T14:49:54;2.60;99.90
14735;DHT22;7458;49.002;8.472;2022-12-15T14:58:23;1.60;99.90
14735;DHT22;7458;49.002;8.472;2022-12-15T15:00:55;1.70;99.90
14735;DHT22;7458;49.002;8.472;2022-12-15T15:03:26;1.70;99.90
14735;DHT22;7458;49.002;8.472;2022-12-15T15:06:04;2.00;99.90
14735;DHT22;7458;49.002;8.472;2022-12-15T15:11:34;2.00;99.90
14735;DHT22;7458;49.002;8.472;2022-12-15T15:14:29;1.80;99.90
14735;DHT22;7458;49.002;8.472;2022-12-15T15:17:05;2.30;99.90
14735;DHT22;7458;49.002;8.472;2022-12-15T15:20:00;1.50;99.90
14735;DHT22;7458;49.002;8.472;2022-12-15T15:22:37;1.90;99.90
14735;DHT22;7458;49.002;8.472;2022-12-15T15:25:24;1.40;99.90
14735;DHT22;7458;49.002;8.472;2022-12-15T15:31:23;1.50;99.90
14735;DHT22;7458;49.002;8.472;2022-12-15T15:33:51;1.40;99.90
14735;DHT22;7458;49.002;8.472;2022-12-15T15:36:19;2.00;99.90
14735;DHT22;7458;49.002;8.472;2022-12-15T15:38:47;2.00;99.90
14735;DHT22;7458;49.002;8.472;2022-12-15T15:43:38;1.20;99.90
14735;DHT22;7458;49.002;8.472;2022-12-15T15:46:12;1.10;99.90
14735;DHT22;7458;49.002;8.472;2022-12-15T15:48:48;1.50;99.90
14735;DHT22;7458;49.002;8.472;2022-12-15T15:51:17;0.90;99.90
14735;DHT22;7458;49.002;8.472;2022-12-15T15:53:44;0.80;99.90
14735;DHT22;7458;49.002;8.472;2022-12-15T15:56:13;0.80;99.90
14735;DHT22;7458;49.002;8.472;2022-12-15T15:58:41;1.70;99.90
14735;DHT22;7458;49.002;8.472;2022-12-15T16:01:08;1.40;99.90
14735;DHT22;7458;49.002;8.472;2022-12-15T16:03:35;0.90;99.90
14735;DHT22;7458;49.002;8.472;2022-12-15T16:06:02;0.80;99.90
14735;DHT22;7458;49.002;8.472;2022-12-15T16:08:33;0.70;99.90
14735;DHT22;7458;49.002;8.472;2022-12-15T16:11:01;2.00;99.90
14735;DHT22;7458;49.002;8.472;2022-12-15T16:13:27;0.50;99.90
14735;DHT22;7458;49.002;8.472;2022-12-15T16:15:54;0.50;99.90
14735;DHT22;7458;49.002;8.472;2022-12-15T16:18:20;0.50;99.90
14735;DHT22;7458;49.002;8.472;2022-12-15T16:20:48;0.90;99.90
14735;DHT22;7458;49.002;8.472;2022-12-15T16:23:19;1.90;99.90
14735;DHT22;7458;49.002;8.472;2022-12-15T16:25:51;2.00;99.90
14735;DHT22;7458;49.002;8.472;2022-12-15T16:28:22;2.40;99.90
14735;DHT22;7458;49.002;8.472;2022-12-15T16:30:50;1.20;99.90
14735;DHT22;7458;49.002;8.472;2022-12-15T16:33:16;1.80;99.90
14735;DHT22;7458;49.002;8.472;2022-12-15T16:35:43;0.90;99.90
14735;DHT22;7458;49.002;8.472;2022-12-15T16:38:25;2.10;99.90
14735;DHT22;7458;49.002;8.472;2022-12-15T16:40:53;0.70;99.90
14735;DHT22;7458;49.002;8.472;2022-12-15T16:43:22;1.60;99.90
14735;DHT22;7458;49.002;8.472;2022-12-15T16:45:50;1.40;99.90
14735;DHT22;7458;49.002;8.472;2022-12-15T16:48:17;0.80;99.90
14735;DHT22;7458;49.002;8.472;2022-12-15T16:50:57;1.70;99.90
14735;DHT22;7458;49.002;8.472;2022-12-15T16:53:28;1.40;99.90
14735;DHT22;7458;49.002;8.472;2022-12-15T16:55:58;0.40;99.90
14735;DHT22;7458;49.002;8.472;2022-12-15T16:58:27;0.50;99.90
14735;DHT22;7458;49.002;8.472;2022-12-15T17:00:55;0.40;99.90
14735;DHT22;7458;49.002;8.472;2022-12-15T17:03:22;0.80;99.90
14735;DHT22;7458;49.002;8.472;2022-12-15T17:05:52;0.70;99.90
14735;DHT22;7458;49.002;8.472;2022-12-15T17:11:21;0.60;99.90
14735;DHT22;7458;49.002;8.472;2022-12-15T17:13:49;1.40;99.90
14735;DHT22;7458;49.002;8.472;2022-12-15T17:16:18;0.60;99.90
14735;DHT22;7458;49.002;8.472;2022-12-15T17:18:45;1.20;99.90
14735;DHT22;7458;49.002;8.472;2022-12-15T17:21:22;0.40;99.90
14735;DHT22;7458;49.002;8.472;2022-12-15T17:23:52;0.50;99.90
14735;DHT22;7458;49.002;8.472;2022-12-15T17:26:27;1.20;99.90
14735;DHT22;7458;49.002;8.472;2022-12-15T17:28:59;0.70;99.90
14735;DHT22;7458;49.002;8.472;2022-12-15T17:31:30;0.90;99.90
14735;DHT22;7458;49.002;8.472;2022-12-15T17:33:56;0.30;99.90
14735;DHT22;7458;49.002;8.472;2022-12-15T17:36:24;1.50;99.90
14735;DHT22;7458;49.002;8.472;2022-12-15T17:38:57;0.80;99.90
14735;DHT22;7458;49.002;8.472;2022-12-15T17:41:25;0.40;99.90
14735;DHT22;7458;49.002;8.472;2022-12-15T17:43:52;0.40;99.90
14735;DHT22;7458;49.002;8.472;2022-12-15T17:46:18;0.20;99.90
14735;DHT22;7458;49.002;8.472;2022-12-15T17:48:44;1.00;99.90
14735;DHT22;7458;49.002;8.472;2022-12-15T17:51:17;0.50;99.90
14735;DHT22;7458;49.002;8.472;2022-12-15T17:53:45;0.30;99.90
14735;DHT22;7458;49.002;8.472;2022-12-15T17:56:15;0.40;99.90
14735;DHT22;7458;49.002;8.472;2022-12-15T17:58:42;0.40;99.90
14735;DHT22;7458;49.002;8.472;2022-12-15T18:01:13;1.30;99.90
14735;DHT22;7458;49.002;8.472;2022-12-15T18:03:39;0.20;99.90
14735;DHT22;7458;49.002;8.472;2022-12-15T18:06:11;1.20;99.90
14735;DHT22;7458;49.002;8.472;2022-12-15T18:08:40;0.70;99.90
14735;DHT22;7458;49.002;8.472;2022-12-15T18:11:13;0.40;99.90
14735;DHT22;7458;49.002;8.472;2022-12-15T18:13:40;0.40;99.90
14735;DHT22;7458;49.002;8.472;2022-12-15T18:16:06;0.70;99.90
14735;DHT22;7458;49.002;8.472;2022-12-15T18:18:32;0.60;99.90
14735;DHT22;7458;49.002;8.472;2022-12-15T18:21:03;0.50;99.90
14735;DHT22;7458;49.002;8.472;2022-12-15T18:23:38;0.50;99.90
14735;DHT22;7458;49.002;8.472;2022-12-15T18:26:04;0.50;99.90
14735;DHT22;7458;49.002;8.472;2022-12-15T18:28:31;0.40;99.90
14735;DHT22;7458;49.002;8.472;2022-12-15T18:31:25;0.30;99.90
14735;DHT22;7458;49.002;8.472;2022-12-15T18:33:55;1.10;99.90
14735;DHT22;7458;49.002;8.472;2022-12-15T18:36:22;0.70;99.90
14735;DHT22;7458;49.002;8.472;2022-12-15T18:38:48;0.40;99.90
14735;DHT22;7458;49.002;8.472;2022-12-15T18:41:16;1.30;99.90
14735;DHT22;7458;49.002;8.472;2022-12-15T18:43:43;0.40;99.90
14735;DHT22;7458;49.002;8.472;2022-12-15T18:46:14;0.80;99.90
14735;DHT22;7458;49.002;8.472;2022-12-15T18:48:42;0.40;99.90
14735;DHT22;7458;49.002;8.472;2022-12-15T18:51:17;1.50;99.90
14735;DHT22;7458;49.002;8.472;2022-12-15T18:53:46;0.40;99.90
14735;DHT22;7458;49.002;8.472;2022-12-15T18:56:14;0.70;99.90